Time;durP1;ratioP1;P1;durP2;ratioP2;P2;SDS_P1;SDS_P2;PMS_P1;PMS_P2;Temp;Humidity;BMP_temperature;BMP_pressure;BME280_temperature;BME280_humidity;BME280_pressure;Samples;Min_cycle;Max_cycle;Signal;HPM_P1;HPM_P2
2021/12/01 00:01:43;;;;;;;9.15;3.00;;;;;;;;;;4911860;29;20063;-67
2021/12/01 00:04:15;;;;;;;13.35;3.15;;;;;;;;;;4911961;29;20507;-68
2021/12/01 00:06:45;;;;;;;10.35;3.50;;;;;;;;;;4903120;29;20052;-67
2021/12/01 00:09:15;;;;;;;9.82;3.17;;;;;;;;;;4930534;29;20052;-67
2021/12/01 00:11:48;;;;;;;12.55;4.07;;;;;;;;;;4949896;28;20055;-68
2021/12/01 00:14:19;;;;;;;10.95;3.50;;;;;;;;;;4936286;28;20064;-67
2021/12/01 00:16:49;;;;;;;13.80;4.13;;;;;;;;;;4921543;29;20071;-67
2021/12/01 00:19:19;;;;;;;15.00;4.25;;;;;;;;;;4930908;29;20176;-67
2021/12/01 00:21:49;;;;;;;9.13;3.55;;;;;;;;;;4931045;29;20059;-68
2021/12/01 00:24:20;;;;;;;13.38;3.88;;;;;;;;;;4967282;28;20238;-67
2021/12/01 00:26:51;;;;;;;16.38;5.07;;;;;;;;;;4969349;28;20058;-67
2021/12/01 00:29:21;;;;;;;14.85;5.07;;;;;;;;;;4943248;28;20503;-68
2021/12/01 00:31:51;;;;;;;13.82;4.97;;;;;;;;;;4972481;28;20453;-66
2021/12/01 00:34:22;;;;;;;17.25;4.55;;;;;;;;;;4972194;28;20054;-67
2021/12/01 00:36:52;;;;;;;10.88;2.90;;;;;;;;;;4988138;28;20055;-67
2021/12/01 00:39:22;;;;;;;9.60;3.53;;;;;;;;;;4969319;28;20056;-66
2021/12/01 00:41:55;;;;;;;7.28;2.60;;;;;;;;;;4934168;29;20063;-67
2021/12/01 00:44:28;;;;;;;8.18;2.40;;;;;;;;;;4933633;29;20071;-67
2021/12/01 00:49:36;;;;;;;9.55;3.20;;;;;;;;;;4952634;28;20547;-67
2021/12/01 00:52:06;;;;;;;9.32;3.03;;;;;;;;;;4923051;29;20063;-68
2021/12/01 00:54:37;;;;;;;11.43;3.83;;;;;;;;;;4914685;29;20063;-67
2021/12/01 00:57:08;;;;;;;19.08;4.90;;;;;;;;;;4895795;29;20468;-67
2021/12/01 00:59:38;;;;;;;13.90;4.85;;;;;;;;;;4876533;29;20515;-67
2021/12/01 01:02:08;;;;;;;13.07;3.88;;;;;;;;;;4855939;29;20058;-66
2021/12/01 01:04:38;;;;;;;13.27;4.53;;;;;;;;;;4824285;29;20212;-68
2021/12/01 01:07:09;;;;;;;10.93;4.28;;;;;;;;;;4829719;29;20062;-67
2021/12/01 01:09:42;;;;;;;13.55;5.03;;;;;;;;;;4866212;29;20065;-67
2021/12/01 01:18:05;;;;;;;16.52;6.25;;;;;;;;;;4876547;29;20057;-67
2021/12/01 01:20:36;;;;;;;20.92;5.18;;;;;;;;;;4876713;29;20072;-67
2021/12/01 01:23:06;;;;;;;19.02;5.50;;;;;;;;;;4876904;29;20060;-66
2021/12/01 01:25:36;;;;;;;17.02;5.15;;;;;;;;;;4893527;29;20386;-67
2021/12/01 01:28:07;;;;;;;14.68;6.05;;;;;;;;;;4876313;29;20057;-69
2021/12/01 01:30:37;;;;;;;16.63;4.50;;;;;;;;;;4892158;29;20082;-68
2021/12/01 01:33:07;;;;;;;9.23;3.80;;;;;;;;;;4897709;29;20063;-68
2021/12/01 01:35:37;;;;;;;13.55;3.63;;;;;;;;;;4882045;29;20453;-69
2021/12/01 01:38:08;;;;;;;9.07;3.80;;;;;;;;;;4945314;29;20426;-67
2021/12/01 01:40:39;;;;;;;13.40;4.32;;;;;;;;;;4952156;29;20082;-67
2021/12/01 01:43:10;;;;;;;15.13;4.90;;;;;;;;;;4935830;29;20492;-67
2021/12/01 01:45:41;;;;;;;12.88;4.82;;;;;;;;;;4913331;29;20063;-67
2021/12/01 01:48:13;;;;;;;14.77;5.15;;;;;;;;;;4897402;29;20064;-66
2021/12/01 01:50:44;;;;;;;14.10;4.70;;;;;;;;;;4932731;29;20047;-66
2021/12/01 01:53:21;;;;;;;13.45;4.97;;;;;;;;;;4932367;29;20062;-67
2021/12/01 01:55:55;;;;;;;19.60;5.25;;;;;;;;;;4957005;28;20059;-67
2021/12/01 01:58:28;;;;;;;22.48;6.45;;;;;;;;;;4951271;29;20052;-67
2021/12/01 02:01:06;;;;;;;22.17;6.10;;;;;;;;;;4935688;29;20051;-68
2021/12/01 02:03:44;;;;;;;19.13;6.22;;;;;;;;;;4951115;29;20043;-67
2021/12/01 02:06:22;;;;;;;22.20;6.95;;;;;;;;;;4970697;28;20506;-68
2021/12/01 02:08:55;;;;;;;19.88;7.15;;;;;;;;;;4956554;28;20074;-66
2021/12/01 02:11:28;;;;;;;17.70;6.65;;;;;;;;;;4986149;28;20051;-67
2021/12/01 02:13:59;;;;;;;18.90;6.13;;;;;;;;;;4935692;29;20411;-68
2021/12/01 02:16:29;;;;;;;17.15;5.25;;;;;;;;;;4951246;29;20082;-67
2021/12/01 02:18:59;;;;;;;15.00;5.22;;;;;;;;;;4970125;28;20051;-66
2021/12/01 02:21:31;;;;;;;17.42;5.28;;;;;;;;;;4970326;28;20062;-69
2021/12/01 02:24:06;;;;;;;;;;;;;;;;;;4950938;28;20055;-68
2021/12/01 02:26:44;;;;;;;11.38;4.30;;;;;;;;;;4919575;28;19923;-67
2021/12/01 02:29:17;;;;;;;16.23;5.78;;;;;;;;;;4935067;28;20059;-66
2021/12/01 02:31:50;;;;;;;16.15;5.35;;;;;;;;;;4932770;28;20055;-67
2021/12/01 02:34:21;;;;;;;;;;;;;;;;;;4951518;28;20055;-67
2021/12/01 02:36:55;;;;;;;14.15;5.18;;;;;;;;;;4937017;28;19923;-66
2021/12/01 02:39:27;;;;;;;12.57;4.95;;;;;;;;;;4947431;28;20055;-68
2021/12/01 02:42:05;;;;;;;12.82;4.53;;;;;;;;;;4946797;28;20519;-68
2021/12/01 02:44:36;;;;;;;17.77;5.00;;;;;;;;;;4970030;28;20077;-67
2021/12/01 02:47:06;;;;;;;15.20;5.78;;;;;;;;;;4949339;28;20631;-68
2021/12/01 02:49:37;;;;;;;18.83;7.63;;;;;;;;;;4931141;29;20055;-70
2021/12/01 02:52:07;;;;;;;25.45;9.90;;;;;;;;;;4912312;29;20130;-66
2021/12/01 02:54:39;;;;;;;26.95;9.50;;;;;;;;;;4879146;28;20047;-68
2021/12/01 02:57:10;;;;;;;26.10;9.20;;;;;;;;;;4989421;28;20065;-68
2021/12/01 02:59:40;;;;;;;30.02;9.45;;;;;;;;;;4989376;28;20078;-69
2021/12/01 03:02:11;;;;;;;26.05;8.75;;;;;;;;;;4950520;28;20062;-67
2021/12/01 03:04:42;;;;;;;25.80;8.18;;;;;;;;;;4950341;29;20165;-66
2021/12/01 03:07:13;;;;;;;22.42;8.30;;;;;;;;;;4969586;28;20519;-67
2021/12/01 03:09:43;;;;;;;21.95;7.57;;;;;;;;;;4967103;28;20047;-66
2021/12/01 03:12:13;;;;;;;20.20;6.60;;;;;;;;;;4969486;28;20414;-66
2021/12/01 03:14:44;;;;;;;17.77;5.95;;;;;;;;;;4964444;28;20077;-70
2021/12/01 03:17:14;;;;;;;14.38;5.00;;;;;;;;;;4931543;29;20059;-66
2021/12/01 03:19:45;;;;;;;13.70;4.47;;;;;;;;;;4931188;29;20179;-67
2021/12/01 03:22:15;;;;;;;13.10;4.53;;;;;;;;;;4969454;28;20050;-67
2021/12/01 03:24:46;;;;;;;12.88;5.07;;;;;;;;;;4950606;28;20092;-68
2021/12/01 03:27:17;;;;;;;14.15;4.28;;;;;;;;;;4959802;28;20051;-68
2021/12/01 03:29:51;;;;;;;13.93;4.57;;;;;;;;;;4959750;28;20051;-67
2021/12/01 03:32:21;;;;;;;14.88;4.28;;;;;;;;;;4959903;28;20050;-66
2021/12/01 03:34:51;;;;;;;16.85;5.80;;;;;;;;;;4968141;28;20063;-69
2021/12/01 03:37:21;;;;;;;14.25;5.80;;;;;;;;;;4950481;28;20543;-69
2021/12/01 03:39:52;;;;;;;15.23;5.20;;;;;;;;;;4970030;28;20046;-70
2021/12/01 03:42:23;;;;;;;14.88;5.60;;;;;;;;;;4941489;28;20427;-70
2021/12/01 03:44:55;;;;;;;12.95;4.78;;;;;;;;;;4978748;28;20051;-68
2021/12/01 03:47:27;;;;;;;14.77;4.40;;;;;;;;;;4959543;28;20058;-68
2021/12/01 03:49:58;;;;;;;13.13;4.70;;;;;;;;;;4950240;28;20071;-70
2021/12/01 03:52:29;;;;;;;11.60;4.03;;;;;;;;;;4898511;29;20120;-70
2021/12/01 03:55:00;;;;;;;11.55;4.05;;;;;;;;;;4912142;29;20060;-68
2021/12/01 03:57:31;;;;;;;10.57;3.50;;;;;;;;;;4897130;29;20060;-70
2021/12/01 04:00:05;;;;;;;7.93;3.50;;;;;;;;;;4905370;29;20060;-69
2021/12/01 04:02:41;;;;;;;9.85;3.60;;;;;;;;;;4897311;29;20061;-71
2021/12/01 04:05:12;;;;;;;11.38;3.67;;;;;;;;;;4938954;29;20051;-69
2021/12/01 04:07:43;;;;;;;8.65;3.97;;;;;;;;;;4914075;29;20048;-67
2021/12/01 04:10:16;;;;;;;11.98;4.10;;;;;;;;;;4967956;28;20084;-70
2021/12/01 04:12:48;;;;;;;14.25;3.88;;;;;;;;;;4976697;28;20418;-70
2021/12/01 04:15:19;;;;;;;11.02;3.88;;;;;;;;;;4944022;28;20565;-69
2021/12/01 04:17:49;;;;;;;9.00;3.88;;;;;;;;;;4965129;28;20050;-70
2021/12/01 04:20:20;;;;;;;8.27;3.17;;;;;;;;;;4972919;28;20491;-70
2021/12/01 04:22:54;;;;;;;9.38;3.22;;;;;;;;;;4973116;28;20047;-69
2021/12/01 04:25:25;;;;;;;7.97;3.47;;;;;;;;;;4972720;28;20059;-69
2021/12/01 04:27:55;;;;;;;8.55;3.72;;;;;;;;;;4914819;29;20048;-70
2021/12/01 04:30:26;;;;;;;12.30;4.75;;;;;;;;;;4914988;29;20056;-69
2021/12/01 04:32:58;;;;;;;13.25;4.20;;;;;;;;;;4899528;29;20056;-70
2021/12/01 04:35:29;;;;;;;10.45;4.10;;;;;;;;;;4915029;29;20456;-70
2021/12/01 04:38:00;;;;;;;13.35;4.63;;;;;;;;;;4942535;28;20067;-71
2021/12/01 04:40:30;;;;;;;9.70;4.32;;;;;;;;;;4933971;29;20064;-72
2021/12/01 04:43:01;;;;;;;11.80;4.47;;;;;;;;;;4941754;28;20060;-68
2021/12/01 04:45:36;;;;;;;14.48;5.20;;;;;;;;;;4955069;28;20399;-70
2021/12/01 04:48:06;;;;;;;16.02;5.32;;;;;;;;;;4960879;28;20484;-71
2021/12/01 04:50:37;;;;;;;12.07;4.18;;;;;;;;;;4953069;28;20063;-69
2021/12/01 04:53:08;;;;;;;12.15;4.22;;;;;;;;;;4936539;28;20055;-70
2021/12/01 04:55:40;;;;;;;12.40;3.90;;;;;;;;;;4944230;28;20047;-68
2021/12/01 04:58:10;;;;;;;9.88;3.80;;;;;;;;;;4952786;28;20063;-69
2021/12/01 05:00:41;;;;;;;10.00;4.25;;;;;;;;;;4952806;28;20066;-70
2021/12/01 05:03:11;;;;;;;12.95;3.97;;;;;;;;;;4971857;28;20063;-70
2021/12/01 05:05:52;;;;;;;11.40;3.90;;;;;;;;;;4942391;28;20044;-70
2021/12/01 05:08:23;;;;;;;11.70;4.55;;;;;;;;;;4930050;29;20087;-70
2021/12/01 05:10:53;;;;;;;11.10;4.20;;;;;;;;;;4944288;29;20179;-70
2021/12/01 05:13:27;;;;;;;8.68;4.90;;;;;;;;;;4952720;29;20056;-70
2021/12/01 05:15:58;;;;;;;12.70;5.32;;;;;;;;;;4952079;29;20132;-68
2021/12/01 05:18:29;;;;;;;12.10;5.25;;;;;;;;;;4913847;29;20052;-68
2021/12/01 05:20:59;;;;;;;14.80;5.57;;;;;;;;;;4913854;29;20052;-68
2021/12/01 05:23:30;;;;;;;10.35;4.85;;;;;;;;;;4902325;29;20079;-70
2021/12/01 05:26:01;;;;;;;14.07;5.43;;;;;;;;;;4913131;29;20056;-68
2021/12/01 05:28:32;;;;;;;13.05;5.05;;;;;;;;;;4913828;29;20052;-69
2021/12/01 05:31:02;;;;;;;13.25;5.05;;;;;;;;;;4902430;29;20056;-69
2021/12/01 05:33:34;;;;;;;13.40;5.90;;;;;;;;;;4883458;29;20514;-68
2021/12/01 05:36:06;;;;;;;18.08;6.82;;;;;;;;;;4868045;29;20577;-67
2021/12/01 05:38:37;;;;;;;15.30;6.05;;;;;;;;;;4876395;29;20410;-68
2021/12/01 05:41:07;;;;;;;14.65;6.15;;;;;;;;;;4882614;29;20056;-69
2021/12/01 05:43:38;;;;;;;15.63;5.18;;;;;;;;;;4845247;29;20057;-69
2021/12/01 05:46:08;;;;;;;14.00;4.63;;;;;;;;;;4913397;29;20055;-69
2021/12/01 05:48:39;;;;;;;11.65;4.68;;;;;;;;;;4923541;29;20618;-70
2021/12/01 05:51:10;;;;;;;10.65;4.55;;;;;;;;;;4932496;29;20060;-68
2021/12/01 05:53:41;;;;;;;14.35;5.28;;;;;;;;;;4942609;29;20063;-69
2021/12/01 05:56:11;;;;;;;11.30;5.40;;;;;;;;;;4922543;29;20535;-67
2021/12/01 05:58:42;;;;;;;15.43;4.90;;;;;;;;;;4893266;29;20057;-72
2021/12/01 06:01:13;;;;;;;11.57;4.60;;;;;;;;;;4829944;29;20061;-70
2021/12/01 06:03:44;;;;;;;14.55;4.88;;;;;;;;;;4845212;29;20414;-69
2021/12/01 06:06:15;;;;;;;9.32;4.55;;;;;;;;;;4848151;29;20446;-69
2021/12/01 06:08:48;;;;;;;11.57;5.10;;;;;;;;;;4904397;29;20086;-68
2021/12/01 06:11:21;;;;;;;11.48;4.72;;;;;;;;;;4932025;29;20428;-70
2021/12/01 06:13:54;;;;;;;11.27;4.53;;;;;;;;;;4919364;29;20054;-70
2021/12/01 06:16:25;;;;;;;14.00;4.55;;;;;;;;;;4931907;29;20603;-68
2021/12/01 06:18:56;;;;;;;13.10;4.05;;;;;;;;;;4981056;28;20054;-70
2021/12/01 06:21:26;;;;;;;16.42;5.63;;;;;;;;;;4951381;28;20066;-68
2021/12/01 06:24:00;;;;;;;15.93;5.63;;;;;;;;;;4940905;29;20064;-70
2021/12/01 06:26:30;;;;;;;19.15;7.25;;;;;;;;;;4901605;29;20448;-70
2021/12/01 06:29:01;;;;;;;14.52;6.60;;;;;;;;;;4932026;29;20083;-71
2021/12/01 06:31:32;;;;;;;18.48;6.63;;;;;;;;;;4932233;29;20137;-70
2021/12/01 06:34:03;;;;;;;13.05;6.20;;;;;;;;;;4932144;29;20063;-70
2021/12/01 06:36:34;;;;;;;16.30;6.03;;;;;;;;;;4931866;29;20047;-69
2021/12/01 06:39:06;;;;;;;11.82;5.18;;;;;;;;;;4912866;29;20466;-70
2021/12/01 06:41:38;;;;;;;17.00;6.85;;;;;;;;;;4912557;29;20424;-71
2021/12/01 06:44:09;;;;;;;16.67;6.13;;;;;;;;;;4913093;29;20102;-70
2021/12/01 06:46:40;;;;;;;16.33;5.82;;;;;;;;;;4881343;29;20521;-71
2021/12/01 06:49:10;;;;;;;17.75;7.03;;;;;;;;;;4908826;29;20413;-70
2021/12/01 06:51:48;;;;;;;16.27;7.85;;;;;;;;;;4912434;29;20127;-69
2021/12/01 06:54:23;;;;;;;15.32;6.53;;;;;;;;;;4974345;28;20053;-70
2021/12/01 06:56:54;;;;;;;20.85;6.10;;;;;;;;;;4969601;28;20050;-70
2021/12/01 06:59:24;;;;;;;13.45;5.32;;;;;;;;;;4931212;29;20054;-69
2021/12/01 07:01:55;;;;;;;15.25;4.53;;;;;;;;;;4931470;29;20428;-69
2021/12/01 07:04:26;;;;;;;12.75;4.10;;;;;;;;;;4932013;29;20056;-68
2021/12/01 07:06:58;;;;;;;15.57;4.47;;;;;;;;;;4950547;28;20052;-71
2021/12/01 07:09:29;;;;;;;12.32;4.07;;;;;;;;;;4950743;29;20051;-71
2021/12/01 07:11:59;;;;;;;7.72;3.40;;;;;;;;;;4950140;29;20058;-70
2021/12/01 07:14:30;;;;;;;8.75;3.55;;;;;;;;;;4950588;29;20059;-70
2021/12/01 07:17:01;;;;;;;12.82;4.13;;;;;;;;;;4915874;29;20064;-70
2021/12/01 07:19:32;;;;;;;14.15;4.38;;;;;;;;;;4916159;29;20067;-71
2021/12/01 07:22:03;;;;;;;14.15;3.47;;;;;;;;;;4950126;29;20086;-70
2021/12/01 07:24:34;;;;;;;14.38;4.18;;;;;;;;;;4950362;29;20070;-70
2021/12/01 07:27:05;;;;;;;11.80;4.32;;;;;;;;;;4939137;29;20121;-72
2021/12/01 07:29:37;;;;;;;8.85;3.75;;;;;;;;;;4931126;29;20051;-71
2021/12/01 07:32:08;;;;;;;10.65;4.38;;;;;;;;;;4922444;29;20052;-70
2021/12/01 07:34:43;;;;;;;9.52;3.80;;;;;;;;;;4887670;29;20055;-69
2021/12/01 07:37:17;;;;;;;8.63;3.75;;;;;;;;;;4934995;29;20539;-71
2021/12/01 07:39:48;;;;;;;13.35;4.00;;;;;;;;;;4935317;29;20055;-70
2021/12/01 07:42:19;;;;;;;9.10;3.60;;;;;;;;;;4935088;29;20064;-68
2021/12/01 07:44:51;;;;;;;11.27;3.65;;;;;;;;;;4915678;29;20048;-70
2021/12/01 07:47:22;;;;;;;11.63;4.20;;;;;;;;;;4918396;29;20500;-70
2021/12/01 07:49:53;;;;;;;9.27;4.50;;;;;;;;;;4945872;29;20430;-70
2021/12/01 07:52:23;;;;;;;15.00;4.50;;;;;;;;;;4953818;28;20088;-71
2021/12/01 07:54:54;;;;;;;9.52;4.45;;;;;;;;;;4954042;29;20055;-71
2021/12/01 07:57:25;;;;;;;12.85;4.25;;;;;;;;;;4953894;28;20082;-72
2021/12/01 07:59:56;;;;;;;15.90;4.90;;;;;;;;;;4965601;28;20069;-69
2021/12/01 08:02:27;;;;;;;11.43;4.18;;;;;;;;;;4956511;28;20054;-69
2021/12/01 08:04:58;;;;;;;10.63;4.22;;;;;;;;;;4973203;28;20062;-70
2021/12/01 08:07:33;;;;;;;8.98;3.45;;;;;;;;;;4973007;28;20058;-69
2021/12/01 08:10:06;;;;;;;10.05;3.47;;;;;;;;;;4985632;28;20062;-71
2021/12/01 08:12:38;;;;;;;8.98;3.70;;;;;;;;;;5004935;28;20502;-71
2021/12/01 08:15:10;;;;;;;9.05;3.80;;;;;;;;;;5011975;28;20089;-70
2021/12/01 08:17:41;;;;;;;9.23;3.55;;;;;;;;;;4995827;28;20046;-69
2021/12/01 08:20:12;;;;;;;12.00;4.75;;;;;;;;;;4995712;28;20054;-71
2021/12/01 08:22:43;;;;;;;11.55;3.78;;;;;;;;;;4990796;28;20057;-69
2021/12/01 08:25:15;;;;;;;9.40;3.47;;;;;;;;;;5031709;28;20045;-70
2021/12/01 08:27:46;;;;;;;6.80;2.80;;;;;;;;;;5055309;28;20061;-68
2021/12/01 08:30:17;;;;;;;8.43;2.78;;;;;;;;;;5071652;28;20145;-70
2021/12/01 08:32:48;;;;;;;6.93;2.78;;;;;;;;;;5031223;28;20054;-70
2021/12/01 08:35:20;;;;;;;8.43;3.28;;;;;;;;;;5031644;28;20058;-72
2021/12/01 08:37:51;;;;;;;9.85;3.70;;;;;;;;;;4976287;28;20061;-71
2021/12/01 08:40:22;;;;;;;9.45;3.92;;;;;;;;;;4991683;28;20053;-71
2021/12/01 08:42:53;;;;;;;9.13;4.15;;;;;;;;;;5031197;28;20060;-72
2021/12/01 08:45:27;;;;;;;10.98;4.32;;;;;;;;;;5030094;28;20065;-72
2021/12/01 08:47:58;;;;;;;8.48;3.28;;;;;;;;;;5014323;28;20045;-71
2021/12/01 08:50:32;;;;;;;14.65;4.00;;;;;;;;;;5031296;28;20068;-71
2021/12/01 08:53:02;;;;;;;9.30;3.42;;;;;;;;;;4971926;28;20051;-72
2021/12/01 08:55:37;;;;;;;8.13;2.30;;;;;;;;;;4940180;28;20059;-71
2021/12/01 09:02:34;;;;;;;4.90;1.92;;;;;;;;;;4973064;28;20042;-70
2021/12/01 09:05:05;;;;;;;7.93;2.33;;;;;;;;;;4956364;28;20411;-71
2021/12/01 09:08:20;;;;;;;5.57;2.13;;;;;;;;;;4972827;28;20046;-72
2021/12/01 09:11:31;;;;;;;8.55;3.50;;;;;;;;;;4991916;28;20050;-72
2021/12/01 09:14:44;;;;;;;14.15;5.57;;;;;;;;;;5019851;28;20045;-72
2021/12/01 09:17:57;;;;;;;16.23;6.57;;;;;;;;;;5040490;28;20063;-71
2021/12/01 09:21:09;;;;;;;14.95;6.97;;;;;;;;;;5050924;28;20045;-71
2021/12/01 09:27:56;;;;;;;12.15;5.10;;;;;;;;;;5050810;28;20072;-69
2021/12/01 09:32:05;;;;;;;11.70;5.00;;;;;;;;;;5080453;28;20032;-72
2021/12/01 09:35:12;;;;;;;15.95;5.03;;;;;;;;;;5092875;28;20040;-72
2021/12/01 09:37:43;;;;;;;13.00;4.53;;;;;;;;;;5070030;28;20040;-73
2021/12/01 09:40:17;;;;;;;10.65;4.70;;;;;;;;;;5030098;28;20501;-72
2021/12/01 09:42:51;;;;;;;10.80;5.15;;;;;;;;;;4977623;28;20045;-70
2021/12/01 09:46:13;;;;;;;9.57;4.57;;;;;;;;;;4952411;28;20047;-72
2021/12/01 09:48:53;;;;;;;11.52;4.90;;;;;;;;;;4894817;29;20056;-69
2021/12/01 09:51:23;;;;;;;11.00;4.38;;;;;;;;;;4894968;29;20506;-68
2021/12/01 09:53:56;;;;;;;8.85;3.65;;;;;;;;;;4894599;29;20052;-72
2021/12/01 09:56:27;;;;;;;12.07;4.18;;;;;;;;;;4894156;29;20053;-73
2021/12/01 09:58:59;;;;;;;13.20;3.85;;;;;;;;;;4894715;29;20067;-72
2021/12/01 10:01:30;;;;;;;13.52;4.50;;;;;;;;;;4894637;29;20052;-68
2021/12/01 10:04:07;;;;;;;15.05;5.72;;;;;;;;;;4894806;29;20049;-69
2021/12/01 10:06:38;;;;;;;14.15;5.25;;;;;;;;;;4859571;29;20061;-69
2021/12/01 10:09:11;;;;;;;18.73;6.32;;;;;;;;;;4861089;29;20176;-69
2021/12/01 10:11:45;;;;;;;14.15;5.97;;;;;;;;;;4890720;29;20480;-71
2021/12/01 10:14:19;;;;;;;17.95;5.35;;;;;;;;;;4875803;29;20068;-67
2021/12/01 10:16:55;;;;;;;20.65;6.68;;;;;;;;;;4865544;29;20056;-69
2021/12/01 10:19:28;;;;;;;14.63;6.65;;;;;;;;;;4922916;28;20539;-70
2021/12/01 10:21:59;;;;;;;13.05;5.68;;;;;;;;;;4954596;28;20049;-69
2021/12/01 10:24:36;;;;;;;14.27;6.75;;;;;;;;;;4938608;28;20062;-66
2021/12/01 10:27:13;;;;;;;14.63;6.70;;;;;;;;;;4984901;28;20066;-68
2021/12/01 10:29:50;;;;;;;14.75;6.22;;;;;;;;;;4938344;28;20550;-71
2021/12/01 10:32:21;;;;;;;13.18;5.22;;;;;;;;;;4970379;28;20070;-70
2021/12/01 10:34:58;;;;;;;10.70;4.80;;;;;;;;;;4970558;28;20557;-72
2021/12/01 10:37:31;;;;;;;12.52;5.22;;;;;;;;;;4931921;29;20066;-69
2021/12/01 10:40:24;;;;;;;13.40;5.57;;;;;;;;;;4932126;29;20055;-68
2021/12/01 10:43:08;;;;;;;11.90;5.85;;;;;;;;;;4931742;29;20060;-66
2021/12/01 10:45:47;;;;;;;12.77;5.78;;;;;;;;;;4931251;29;20060;-67
2021/12/01 10:48:24;;;;;;;11.75;4.45;;;;;;;;;;4930208;29;20059;-68
2021/12/01 10:50:55;;;;;;;12.63;4.05;;;;;;;;;;4881580;29;20075;-67
2021/12/01 10:53:26;;;;;;;7.30;2.65;;;;;;;;;;4881510;29;20056;-67
2021/12/01 10:56:04;;;;;;;12.95;3.22;;;;;;;;;;4895674;29;20445;-68
2021/12/01 10:58:42;;;;;;;9.57;3.00;;;;;;;;;;4893682;29;20048;-68
2021/12/01 11:01:24;;;;;;;6.40;2.63;;;;;;;;;;4912381;29;20600;-70
2021/12/01 11:03:55;;;;;;;9.98;2.97;;;;;;;;;;4912763;29;20533;-70
2021/12/01 11:06:27;;;;;;;5.90;2.60;;;;;;;;;;4916703;28;20448;-68
2021/12/01 11:08:58;;;;;;;122.68;70.50;;;;;;;;;;4950471;29;20063;-68
2021/12/01 11:11:51;;;;;;;21.58;13.65;;;;;;;;;;4966354;28;20536;-67
2021/12/01 11:14:42;;;;;;;8.38;3.30;;;;;;;;;;4955613;28;20388;-68
2021/12/01 11:17:13;;;;;;;7.28;2.20;;;;;;;;;;4954085;28;20058;-68
2021/12/01 11:19:44;;;;;;;12.20;6.35;;;;;;;;;;4988948;28;20046;-68
2021/12/01 11:22:36;;;;;;;6.78;3.05;;;;;;;;;;4988982;28;20516;-69
2021/12/01 11:25:25;;;;;;;9.50;2.85;;;;;;;;;;4989188;28;20089;-68
2021/12/01 11:27:56;;;;;;;6.47;2.65;;;;;;;;;;4973237;28;20046;-67
2021/12/01 11:30:26;;;;;;;5.85;2.95;;;;;;;;;;4973282;28;20085;-68
2021/12/01 11:33:16;;;;;;;37.92;20.70;;;;;;;;;;4996210;28;20171;-67
2021/12/01 11:35:56;;;;;;;7.18;3.38;;;;;;;;;;4963567;28;20570;-70
2021/12/01 11:38:28;;;;;;;8.73;2.30;;;;;;;;;;4970071;28;20530;-68
2021/12/01 11:41:00;;;;;;;9.15;2.05;;;;;;;;;;4969838;28;20065;-67
2021/12/01 11:43:32;;;;;;;7.85;2.00;;;;;;;;;;4953811;28;20051;-69
2021/12/01 11:46:04;;;;;;;7.57;2.05;;;;;;;;;;4969440;28;20531;-69
2021/12/01 11:48:43;;;;;;;6.20;2.10;;;;;;;;;;4963933;28;20062;-70
2021/12/01 11:51:38;;;;;;;7.25;2.10;;;;;;;;;;4950341;29;20071;-71
2021/12/01 11:54:15;;;;;;;4.28;2.30;;;;;;;;;;4950409;29;20055;-70
2021/12/01 11:57:03;;;;;;;5.05;2.15;;;;;;;;;;4935478;29;20510;-69
2021/12/01 11:59:37;;;;;;;4.80;2.05;;;;;;;;;;4927301;29;20593;-64
2021/12/01 12:02:16;;;;;;;6.43;2.25;;;;;;;;;;4931322;29;20060;-66
2021/12/01 12:04:48;;;;;;;7.47;3.10;;;;;;;;;;4969393;28;20047;-68
2021/12/01 12:07:22;;;;;;;6.95;2.42;;;;;;;;;;4969551;28;20066;-67
2021/12/01 12:10:21;;;;;;;7.07;2.25;;;;;;;;;;4967471;28;20431;-66
2021/12/01 12:13:03;;;;;;;7.55;2.00;;;;;;;;;;4911600;29;20052;-66
2021/12/01 12:15:41;;;;;;;5.82;2.40;;;;;;;;;;4893078;29;20507;-66
2021/12/01 12:18:33;;;;;;;9.27;4.18;;;;;;;;;;4893593;29;20409;-67
2021/12/01 12:21:46;;;;;;;6.57;2.00;;;;;;;;;;4896294;29;20049;-67
2021/12/01 12:24:19;;;;;;;6.95;2.10;;;;;;;;;;4880968;29;20461;-67
2021/12/01 12:27:00;;;;;;;5.78;2.25;;;;;;;;;;4924740;29;20062;-66
2021/12/01 12:29:44;;;;;;;8.77;3.63;;;;;;;;;;4918724;29;20064;-67
2021/12/01 12:32:22;;;;;;;7.22;2.33;;;;;;;;;;4934248;28;20064;-66
2021/12/01 12:34:54;;;;;;;;;;;;;;;;;;4918638;29;20063;-67
2021/12/01 12:37:30;;;;;;;7.80;2.25;;;;;;;;;;4953319;28;19922;-66
2021/12/01 12:40:03;;;;;;;6.40;2.30;;;;;;;;;;4910559;28;20055;-65
2021/12/01 12:42:34;;;;;;;7.55;2.17;;;;;;;;;;4981555;28;20062;-66
2021/12/01 12:45:04;;;;;;;5.20;2.63;;;;;;;;;;4972435;28;20063;-68
2021/12/01 12:47:41;;;;;;;21.30;11.88;;;;;;;;;;4956807;28;20070;-66
2021/12/01 12:50:24;;;;;;;19.25;6.93;;;;;;;;;;4979470;28;20066;-68
2021/12/01 12:53:06;;;;;;;8.70;2.22;;;;;;;;;;4995238;28;20061;-66
2021/12/01 12:55:42;;;;;;;5.97;2.45;;;;;;;;;;4962968;28;20121;-67
2021/12/01 12:58:15;;;;;;;5.20;2.25;;;;;;;;;;4973978;28;20053;-66
2021/12/01 13:00:53;;;;;;;4.93;1.83;;;;;;;;;;4991514;28;20054;-68
2021/12/01 13:03:23;;;;;;;7.78;2.92;;;;;;;;;;4971922;28;20054;-65
2021/12/01 13:06:17;;;;;;;20.55;9.98;;;;;;;;;;4972124;28;20095;-67
2021/12/01 13:08:48;;;;;;;7.72;2.20;;;;;;;;;;4970392;28;20807;-66
2021/12/01 13:11:23;;;;;;;6.50;1.60;;;;;;;;;;4933389;29;20417;-66
2021/12/01 13:13:57;;;;;;;8.07;2.72;;;;;;;;;;4917631;29;20622;-68
2021/12/01 13:16:31;;;;;;;16.38;8.23;;;;;;;;;;4914495;29;20104;-66
2021/12/01 13:19:07;;;;;;;7.40;1.77;;;;;;;;;;4895277;29;20056;-66
2021/12/01 13:21:39;;;;;;;6.10;2.42;;;;;;;;;;4864580;29;20509;-66
2021/12/01 13:24:09;;;;;;;;;;;;;;;;;;4914462;29;20072;-66
2021/12/01 13:26:39;;;;;;;4.00;2.17;;;;;;;;;;4914550;29;19930;-66
2021/12/01 13:29:17;;;;;;;5.75;1.92;;;;;;;;;;4899025;29;20571;-66
2021/12/01 13:32:04;;;;;;;3.03;1.65;;;;;;;;;;4914061;29;20512;-66
2021/12/01 13:34:35;;;;;;;5.35;1.33;;;;;;;;;;4885720;29;20090;-67
2021/12/01 13:37:08;;;;;;;4.80;1.45;;;;;;;;;;4895109;29;20064;-68
2021/12/01 13:39:41;;;;;;;3.72;1.20;;;;;;;;;;4933045;29;20055;-67
2021/12/01 13:42:21;;;;;;;3.78;1.38;;;;;;;;;;4932764;29;20060;-67
2021/12/01 13:44:53;;;;;;;4.57;1.30;;;;;;;;;;4932924;29;20070;-66
2021/12/01 13:47:26;;;;;;;4.22;1.20;;;;;;;;;;4932304;29;20054;-67
2021/12/01 13:50:02;;;;;;;4.93;1.60;;;;;;;;;;4974047;28;20058;-66
2021/12/01 13:52:35;;;;;;;5.20;1.63;;;;;;;;;;4971237;28;20058;-69
2021/12/01 13:55:23;;;;;;;5.80;1.55;;;;;;;;;;4971226;28;20098;-65
2021/12/01 13:58:11;;;;;;;5.88;1.48;;;;;;;;;;4955699;28;20051;-67
2021/12/01 14:00:45;;;;;;;3.00;1.00;;;;;;;;;;4971757;28;20533;-65
2021/12/01 14:03:38;;;;;;;2.15;1.23;;;;;;;;;;4990734;28;20042;-65
2021/12/01 14:06:11;;;;;;;3.53;1.13;;;;;;;;;;4990475;28;20054;-66
2021/12/01 14:08:50;;;;;;;4.03;1.10;;;;;;;;;;4990477;28;20054;-67
2021/12/01 14:11:34;;;;;;;2.15;0.98;;;;;;;;;;4976263;28;20049;-66
2021/12/01 14:14:10;;;;;;;5.45;1.35;;;;;;;;;;5010017;28;20406;-67
2021/12/01 14:16:44;;;;;;;3.10;0.88;;;;;;;;;;5010036;28;20049;-67
2021/12/01 14:19:18;;;;;;;3.63;1.02;;;;;;;;;;5009957;28;20065;-66
2021/12/01 14:21:49;;;;;;;6.38;1.75;;;;;;;;;;5009982;28;20544;-64
2021/12/01 14:24:22;;;;;;;3.47;1.25;;;;;;;;;;5033716;28;20053;-65
2021/12/01 14:27:03;;;;;;;3.05;1.00;;;;;;;;;;5016199;28;20532;-65
2021/12/01 14:29:38;;;;;;;5.82;1.05;;;;;;;;;;5049536;28;20068;-65
2021/12/01 14:32:11;;;;;;;20.40;12.27;;;;;;;;;;5029216;28;20049;-67
2021/12/01 14:34:42;;;;;;;5.10;1.30;;;;;;;;;;5029450;28;20061;-63
2021/12/01 14:37:15;;;;;;;3.92;1.30;;;;;;;;;;5029379;28;20061;-65
2021/12/01 14:39:46;;;;;;;6.35;1.42;;;;;;;;;;5029527;28;20049;-65
2021/12/01 14:42:23;;;;;;;5.30;1.10;;;;;;;;;;4976018;28;20042;-66
2021/12/01 14:45:04;;;;;;;4.32;1.30;;;;;;;;;;5009008;28;20045;-66
2021/12/01 14:47:36;;;;;;;2.45;1.25;;;;;;;;;;4960435;28;20050;-66
2021/12/01 14:50:07;;;;;;;4.18;1.20;;;;;;;;;;5047459;28;20065;-65
2021/12/01 14:52:39;;;;;;;4.10;1.20;;;;;;;;;;5015724;28;20504;-66
2021/12/01 14:55:16;;;;;;;2.55;1.00;;;;;;;;;;5048867;28;20063;-66
2021/12/01 14:57:53;;;;;;;5.00;1.13;;;;;;;;;;5048610;28;20049;-66
2021/12/01 15:00:27;;;;;;;4.05;1.05;;;;;;;;;;5048868;28;20057;-66
2021/12/01 15:03:14;;;;;;;3.47;1.13;;;;;;;;;;5028339;28;20116;-66
2021/12/01 15:05:48;;;;;;;5.57;0.95;;;;;;;;;;5028820;28;20064;-65
2021/12/01 15:08:28;;;;;;;4.20;0.90;;;;;;;;;;4979998;28;20049;-66
2021/12/01 15:11:24;;;;;;;2.42;1.00;;;;;;;;;;5028791;28;20057;-66
2021/12/01 15:13:56;;;;;;;1.67;0.90;;;;;;;;;;5012524;28;20045;-66
2021/12/01 15:16:31;;;;;;;4.28;1.00;;;;;;;;;;5028370;28;20073;-66
2021/12/01 15:19:15;;;;;;;3.63;0.82;;;;;;;;;;5004697;28;20054;-64
2021/12/01 15:21:52;;;;;;;3.55;0.93;;;;;;;;;;4992677;28;20058;-66
2021/12/01 15:24:25;;;;;;;2.60;1.02;;;;;;;;;;5009138;28;20053;-66
2021/12/01 15:26:56;;;;;;;3.22;1.00;;;;;;;;;;5008537;28;20053;-65
2021/12/01 15:29:31;;;;;;;2.13;0.75;;;;;;;;;;5009072;28;20410;-66
2021/12/01 15:32:11;;;;;;;3.88;1.20;;;;;;;;;;4989035;28;20046;-67
2021/12/01 15:34:41;;;;;;;2.88;1.08;;;;;;;;;;4969549;28;20058;-66
2021/12/01 15:37:11;;;;;;;3.25;0.93;;;;;;;;;;4937641;28;20070;-65